Time;durP1;ratioP1;P1;durP2;ratioP2;P2;SDS_P1;SDS_P2;PMS_P1;PMS_P2;Temp;Humidity;BMP_temperature;BMP_pressure;BME280_temperature;BME280_humidity;BME280_pressure;Samples;Min_cycle;Max_cycle;Signal;HPM_P1;HPM_P2
2023/09/13 00:01:54;;;;;;;11.30;4.80;;;;;;;13.71;66.03;98900.70;105609;1257;72710;-23
2023/09/13 00:04:23;;;;;;;8.80;4.20;;;;;;;13.66;66.32;98903.16;105433;1259;61731;-24
2023/09/13 00:06:51;;;;;;;7.40;4.00;;;;;;;14.17;66.22;98905.90;105306;1254;61049;-23
2023/09/13 00:09:19;;;;;;;11.20;4.60;;;;;;;14.79;64.25;98900.80;105272;1254;73900;-24
2023/09/13 00:11:47;;;;;;;13.10;4.80;;;;;;;14.96;63.27;98893.89;105542;1259;74501;-24
2023/09/13 00:14:15;;;;;;;10.10;4.90;;;;;;;14.92;63.02;98900.39;105656;1254;71437;-23
2023/09/13 00:16:43;;;;;;;10.90;5.40;;;;;;;14.77;63.84;98905.05;103453;1258;2977822;-23
2023/09/13 00:19:10;;;;;;;11.80;5.10;;;;;;;14.61;63.84;98903.29;105670;1253;61228;-23
2023/09/13 00:21:40;;;;;;;10.00;5.10;;;;;;;14.48;64.04;98901.09;105496;1259;72608;-23
2023/09/13 00:24:09;;;;;;;13.30;5.40;;;;;;;14.35;64.29;98898.68;105579;1259;74448;-23
2023/09/13 00:26:37;;;;;;;8.90;4.80;;;;;;;14.24;64.71;98899.28;105691;1254;72728;-23
2023/09/13 00:29:05;;;;;;;8.30;4.30;;;;;;;14.13;64.94;98897.86;105621;1254;61602;-23
2023/09/13 00:31:33;;;;;;;7.80;5.00;;;;;;;14.04;65.16;98899.02;105555;1259;61090;-23
2023/09/13 00:34:02;;;;;;;10.00;4.70;;;;;;;13.95;65.68;98901.91;105318;1260;72636;-23
2023/09/13 00:36:30;;;;;;;13.90;5.10;;;;;;;13.89;66.32;98901.85;105491;1259;74512;-23
2023/09/13 00:38:58;;;;;;;8.40;4.40;;;;;;;13.82;66.28;98898.95;105385;1259;72715;-23
2023/09/13 00:41:25;;;;;;;8.10;3.70;;;;;;;13.80;66.63;98894.95;105433;1253;61244;-23
2023/09/13 00:43:55;;;;;;;10.20;3.60;;;;;;;14.36;66.36;98892.14;105475;1254;61183;-24
2023/09/13 00:46:22;;;;;;;11.20;4.40;;;;;;;15.06;64.36;98888.70;105611;1259;73903;-23
2023/09/13 00:48:50;;;;;;;9.80;4.30;;;;;;;15.26;63.46;98888.48;105451;1254;74494;-23
2023/09/13 00:51:18;;;;;;;9.50;4.60;;;;;;;15.23;63.22;98886.93;105529;1255;72767;-23
2023/09/13 00:53:46;;;;;;;12.90;4.70;;;;;;;15.11;62.80;98889.08;105185;1254;61123;-23
2023/09/13 00:56:15;;;;;;;11.50;5.00;;;;;;;14.92;63.15;98882.71;105318;1259;61173;-23
2023/09/13 00:58:44;;;;;;;20.30;5.50;;;;;;;14.74;63.88;98885.73;105613;1254;73906;-23
2023/09/13 01:01:13;;;;;;;15.30;5.60;;;;;;;14.58;64.09;98884.16;105492;1259;74539;-23
2023/09/13 01:03:41;;;;;;;11.10;4.90;;;;;;;14.43;64.37;98884.86;105671;1254;72711;-23
2023/09/13 01:06:10;;;;;;;16.80;4.70;;;;;;;14.29;64.61;98885.02;105411;1259;61103;-23
2023/09/13 01:08:42;;;;;;;16.20;5.10;;;;;;;14.16;64.77;98884.86;105558;1258;61160;-23
2023/09/13 01:11:11;;;;;;;12.00;4.40;;;;;;;14.04;64.82;98881.34;105360;1259;72633;-23
2023/09/13 01:13:39;;;;;;;13.80;5.10;;;;;;;13.93;65.06;98878.95;105595;1257;74463;-23
2023/09/13 01:16:39;;;;;;;23.30;5.50;;;;;;;13.82;65.45;98877.69;105467;1259;70796;-23
2023/09/13 01:19:51;;;;;;;16.20;5.50;;;;;;;13.70;65.71;98878.14;105617;1254;61309;-23
2023/09/13 01:22:34;;;;;;;14.70;5.10;;;;;;;13.59;65.86;98874.92;105638;1254;61064;-23
2023/09/13 01:25:02;;;;;;;18.60;6.50;;;;;;;13.50;66.20;98874.26;105346;1259;73859;-23
2023/09/13 01:28:02;;;;;;;12.00;4.50;;;;;;;13.48;66.38;98872.27;105547;1260;73172;-23
2023/09/13 01:30:30;;;;;;;10.40;5.20;;;;;;;14.19;65.92;98869.17;105453;1256;72706;-23
2023/09/13 01:32:57;;;;;;;13.00;5.00;;;;;;;14.75;64.31;98871.45;105542;1257;61107;-23
2023/09/13 01:35:26;;;;;;;12.70;5.70;;;;;;;14.89;63.79;98867.30;105567;1259;61089;-23
2023/09/13 01:37:53;;;;;;;17.80;5.80;;;;;;;14.81;63.67;98867.20;105388;1258;72636;-23
2023/09/13 01:40:21;;;;;;;15.00;5.70;;;;;;;14.68;63.75;98870.65;105461;1260;74410;-23
2023/09/13 01:42:49;;;;;;;14.00;5.70;;;;;;;14.53;63.96;98872.30;105257;1254;71758;-23
2023/09/13 01:45:17;;;;;;;17.30;4.70;;;;;;;14.37;64.14;98870.54;105516;1254;61163;-23
2023/09/13 01:47:46;;;;;;;15.50;4.90;;;;;;;14.24;64.14;98872.54;105336;1254;61052;-23
2023/09/13 01:50:14;;;;;;;13.80;5.10;;;;;;;14.11;64.68;98872.03;105382;1254;73864;-23
2023/09/13 01:52:42;;;;;;;15.10;5.10;;;;;;;14.01;65.10;98870.94;105633;1254;73628;-23
2023/09/13 01:55:10;;;;;;;19.20;5.40;;;;;;;13.92;65.44;98875.05;105649;1257;72770;-23
2023/09/13 01:57:39;;;;;;;14.60;5.20;;;;;;;13.84;65.64;98875.24;105688;1253;61157;-23
2023/09/13 02:00:08;;;;;;;19.40;5.90;;;;;;;13.80;65.35;98884.54;105674;1259;61204;-23
2023/09/13 02:02:40;;;;;;;10.40;4.60;;;;;;;13.78;65.44;98884.36;105710;1259;73871;-23
2023/09/13 02:05:08;;;;;;;13.10;4.50;;;;;;;13.77;65.51;98883.42;105600;1254;74438;-24
2023/09/13 02:07:36;;;;;;;10.90;4.50;;;;;;;13.76;65.61;98880.86;105647;1259;71440;-23
2023/09/13 02:10:04;;;;;;;12.30;4.80;;;;;;;13.77;65.38;98884.08;105546;1253;61168;-23
2023/09/13 02:12:32;;;;;;;7.50;3.50;;;;;;;13.80;65.55;98885.69;105530;1254;61052;-23
2023/09/13 02:15:00;;;;;;;6.70;3.40;;;;;;;14.40;65.69;98886.64;105495;1260;72474;-23
2023/09/13 02:17:28;;;;;;;11.10;4.00;;;;;;;15.13;63.69;98880.80;105496;1259;74425;-23
2023/09/13 02:19:55;;;;;;;7.80;3.70;;;;;;;15.38;62.44;98882.94;105284;1259;71316;-23
2023/09/13 02:22:23;;;;;;;8.50;3.80;;;;;;;15.36;61.95;98883.00;105518;1258;61074;-23
2023/09/13 02:24:51;;;;;;;11.30;4.90;;;;;;;15.24;62.12;98876.02;105675;1260;61103;-23
2023/09/13 02:27:19;;;;;;;12.20;4.10;;;;;;;15.09;62.29;98876.77;105670;1254;73922;-23
2023/09/13 02:29:47;;;;;;;7.90;3.50;;;;;;;14.93;62.05;98871.29;105519;1253;74623;-23
2023/09/13 02:32:15;;;;;;;10.30;4.60;;;;;;;14.78;63.26;98876.27;105559;1260;72754;-23
2023/09/13 02:34:44;;;;;;;12.90;4.20;;;;;;;14.65;63.39;98878.92;105661;1260;61276;-23
2023/09/13 02:37:12;;;;;;;11.10;4.30;;;;;;;14.52;63.78;98876.79;105705;1262;61109;-23
2023/09/13 02:39:42;;;;;;;11.80;4.40;;;;;;;14.39;63.98;98876.64;105634;1254;72418;-23
2023/09/13 02:42:10;;;;;;;12.00;4.70;;;;;;;14.27;64.37;98872.22;105353;1260;74461;-23
2023/09/13 02:44:39;;;;;;;34.60;9.90;;;;;;;14.18;64.74;98872.27;105592;1259;70382;-23
2023/09/13 02:47:07;;;;;;;62.20;24.00;;;;;;;14.10;65.17;98873.56;105314;1259;61135;-23
2023/09/13 02:49:35;;;;;;;85.20;36.70;;;;;;;14.03;65.54;98873.88;105657;1259;61147;-23
2023/09/13 02:52:04;;;;;;;100.10;46.00;;;;;;;14.00;65.77;98876.52;105660;1258;72661;-23
2023/09/13 02:54:32;;;;;;;57.80;24.90;;;;;;;13.97;66.17;98875.49;105651;1254;74588;-23
2023/09/13 02:57:00;;;;;;;38.30;16.00;;;;;;;14.52;66.19;98873.44;105314;1254;71749;-24
2023/09/13 02:59:28;;;;;;;20.20;9.40;;;;;;;15.18;64.92;98871.65;105657;1260;61144;-24
2023/09/13 03:01:57;;;;;;;16.20;7.40;;;;;;;15.36;63.75;98874.77;105546;1255;61150;-24
2023/09/13 03:04:25;;;;;;;11.90;5.90;;;;;;;15.30;63.50;98871.02;105329;1258;73925;-25
2023/09/13 03:06:53;;;;;;;12.30;6.30;;;;;;;15.15;63.91;98870.21;105532;1254;72201;-23
2023/09/13 03:09:21;;;;;;;14.60;4.60;;;;;;;14.99;64.02;98870.12;105359;1254;71464;-23
2023/09/13 03:11:49;;;;;;;10.90;4.80;;;;;;;14.84;64.34;98867.84;105348;1255;61195;-24
2023/09/13 03:14:16;;;;;;;14.00;5.00;;;;;;;14.67;64.37;98862.89;105548;1259;61061;-23
2023/09/13 03:16:45;;;;;;;20.80;8.70;;;;;;;14.53;64.67;98863.86;105541;1259;72628;-23
2023/09/13 03:19:13;;;;;;;19.70;9.90;;;;;;;14.43;64.74;98863.89;105313;1261;73029;-23
2023/09/13 03:21:44;;;;;;;17.30;8.60;;;;;;;14.33;64.92;98861.89;105600;1259;72722;-23
2023/09/13 03:24:12;;;;;;;15.20;8.00;;;;;;;14.25;65.23;98858.66;105218;1260;61144;-23
2023/09/13 03:26:41;;;;;;;15.50;7.00;;;;;;;14.19;65.68;98863.41;105540;1259;61112;-23
2023/09/13 03:29:09;;;;;;;15.50;6.60;;;;;;;14.14;65.58;98864.29;105578;1259;72619;-23
2023/09/13 03:31:38;;;;;;;9.90;4.40;;;;;;;14.10;66.30;98859.98;105663;1259;73210;-23
2023/09/13 03:34:10;;;;;;;15.30;4.70;;;;;;;14.63;66.51;98860.27;105684;1259;71493;-22
2023/09/13 03:36:38;;;;;;;9.90;4.50;;;;;;;15.25;65.10;98856.45;105670;1258;61062;-23
2023/09/13 03:39:06;;;;;;;6.20;4.70;;;;;;;15.42;63.92;98860.36;105709;1259;61149;-23
2023/09/13 03:41:34;;;;;;;12.40;5.30;;;;;;;15.34;63.81;98861.52;105724;1259;73901;-23
2023/09/13 03:44:03;;;;;;;7.40;4.60;;;;;;;15.18;63.91;98862.39;105655;1264;73231;-23
2023/09/13 03:46:31;;;;;;;7.70;5.10;;;;;;;15.01;64.11;98863.94;105661;1263;72745;-23
2023/09/13 03:49:00;;;;;;;9.00;4.80;;;;;;;14.85;64.29;98866.63;105741;1259;61209;-23
2023/09/13 03:51:28;;;;;;;8.60;4.90;;;;;;;14.72;64.13;98869.48;105723;1254;61078;-23
2023/09/13 03:53:58;;;;;;;9.60;5.30;;;;;;;14.63;64.65;98867.83;105677;1259;73824;-23
2023/09/13 03:56:26;;;;;;;12.30;5.80;;;;;;;14.55;64.74;98868.92;105513;1260;73217;-23
2023/09/13 03:58:55;;;;;;;13.60;7.40;;;;;;;14.49;64.68;98867.77;105305;1259;72700;-23
2023/09/13 04:01:24;;;;;;;11.60;9.40;;;;;;;14.43;64.55;98865.92;105289;1270;61195;-22
2023/09/13 04:03:52;;;;;;;17.50;12.40;;;;;;;14.38;65.13;98869.43;105318;1259;61167;-23
2023/09/13 04:06:20;;;;;;;18.80;11.00;;;;;;;14.34;65.48;98872.05;105481;1259;72661;-23
2023/09/13 04:08:48;;;;;;;19.00;9.70;;;;;;;14.30;65.53;98873.35;105546;1259;74453;-22
2023/09/13 04:11:16;;;;;;;10.20;6.40;;;;;;;14.27;66.01;98869.42;105672;1260;71452;-22
2023/09/13 04:13:44;;;;;;;10.80;5.80;;;;;;;14.81;66.07;98869.17;105601;1259;61228;-22
2023/09/13 04:16:14;;;;;;;10.50;5.30;;;;;;;15.49;64.51;98870.05;105325;1260;61064;-23
2023/09/13 04:18:42;;;;;;;8.20;4.50;;;;;;;15.72;63.30;98872.23;105492;1263;72626;-23
2023/09/13 04:21:10;;;;;;;9.40;4.20;;;;;;;15.70;62.78;98872.04;105524;1260;73196;-22
2023/09/13 04:23:39;;;;;;;7.00;4.00;;;;;;;15.60;62.90;98867.82;105343;1259;72764;-22
2023/09/13 04:26:07;;;;;;;7.40;4.30;;;;;;;15.51;62.99;98868.44;105346;1260;61071;-23
2023/09/13 04:28:35;;;;;;;7.50;4.10;;;;;;;15.41;63.22;98867.44;105289;1259;61167;-22
2023/09/13 04:31:03;;;;;;;7.20;4.40;;;;;;;15.32;63.61;98871.34;105258;1262;73960;-23
2023/09/13 04:33:48;;;;;;;7.80;4.20;;;;;;;15.24;63.80;98868.47;105571;1258;73164;-23
2023/09/13 04:36:18;;;;;;;7.10;3.60;;;;;;;15.16;63.54;98867.66;105477;1260;71475;-22
2023/09/13 04:38:47;;;;;;;10.90;3.80;;;;;;;15.11;63.98;98862.73;105454;1254;61231;-22
2023/09/13 04:41:15;;;;;;;8.60;4.90;;;;;;;15.11;63.64;98862.79;105547;1260;61212;-22
2023/09/13 04:43:43;;;;;;;11.30;6.40;;;;;;;15.13;64.04;98867.26;105587;1259;73847;-23
2023/09/13 04:46:12;;;;;;;10.00;5.20;;;;;;;15.17;64.01;98875.63;105412;1259;73244;-23
2023/09/13 04:48:40;;;;;;;8.60;4.60;;;;;;;15.13;64.37;98880.08;105456;1258;71464;-23
2023/09/13 04:51:10;;;;;;;8.90;3.70;;;;;;;15.15;64.29;98877.63;105404;1254;61540;-24
2023/09/13 04:53:38;;;;;;;5.60;3.70;;;;;;;15.23;64.43;98879.25;105233;1263;61096;-24
2023/09/13 04:56:06;;;;;;;12.70;3.80;;;;;;;15.30;64.61;98877.60;105585;1257;73903;-24
2023/09/13 04:58:39;;;;;;;8.10;3.30;;;;;;;15.39;64.37;98878.62;105674;1255;73436;-24
2023/09/13 05:01:08;;;;;;;7.30;3.40;;;;;;;15.47;64.16;98879.20;105683;1269;72719;-22
2023/09/13 05:03:36;;;;;;;6.50;3.10;;;;;;;15.57;63.25;98881.11;105724;1259;61124;-21
2023/09/13 05:06:04;;;;;;;7.70;3.30;;;;;;;15.71;62.78;98876.73;105663;1260;61096;-22
2023/09/13 05:08:36;;;;;;;5.40;2.80;;;;;;;15.81;62.60;98880.02;105672;1264;72643;-22
2023/09/13 05:11:04;;;;;;;6.40;2.80;;;;;;;15.88;62.64;98882.13;105714;1260;73228;-22
2023/09/13 05:13:32;;;;;;;7.00;3.40;;;;;;;15.93;62.40;98881.79;105876;1256;71755;-23
2023/09/13 05:16:00;;;;;;;4.80;2.70;;;;;;;15.98;62.36;98882.52;105558;1260;61278;-25
2023/09/13 05:18:29;;;;;;;6.70;2.80;;;;;;;16.01;62.46;98881.98;105478;1253;61134;-23
2023/09/13 05:20:57;;;;;;;8.00;2.90;;;;;;;16.03;62.71;98881.88;105491;1260;74319;-26
2023/09/13 05:23:25;;;;;;;6.70;3.10;;;;;;;16.08;62.67;98879.06;105442;1267;74434;-23
2023/09/13 05:25:55;;;;;;;4.80;2.60;;;;;;;16.19;62.14;98872.20;105348;1260;72720;-23
2023/09/13 05:28:24;;;;;;;6.00;2.90;;;;;;;16.29;62.64;98872.85;105504;1257;61157;-23
2023/09/13 05:30:54;;;;;;;8.70;2.60;;;;;;;16.47;61.77;98874.10;105492;1260;61119;-23
2023/09/13 05:33:25;;;;;;;9.40;2.90;;;;;;;16.66;61.41;98873.82;105318;1263;71656;-23
2023/09/13 05:35:53;;;;;;;8.50;2.90;;;;;;;16.75;61.07;98880.30;105593;1258;73274;-23
2023/09/13 05:38:21;;;;;;;5.40;3.00;;;;;;;16.77;61.32;98883.36;105466;1254;71520;-24
2023/09/13 05:40:50;;;;;;;8.30;3.00;;;;;;;16.77;60.59;98880.95;105371;1259;61116;-24
2023/09/13 05:43:18;;;;;;;8.50;2.80;;;;;;;16.80;59.90;98887.42;105489;1254;61088;-24
2023/09/13 05:45:46;;;;;;;8.70;4.00;;;;;;;16.84;59.97;98882.55;105514;1259;72557;-24
2023/09/13 05:48:14;;;;;;;5.70;2.60;;;;;;;16.87;60.18;98888.30;105317;1254;73610;-23
2023/09/13 05:50:42;;;;;;;8.10;4.50;;;;;;;16.91;60.31;98888.22;105502;1256;72719;-24
2023/09/13 05:53:10;;;;;;;4.90;2.80;;;;;;;16.97;59.87;98884.05;105250;1261;61259;-22
2023/09/13 05:55:38;;;;;;;4.80;2.70;;;;;;;17.00;59.97;98880.23;105571;1260;61235;-23
2023/09/13 05:58:06;;;;;;;4.80;2.70;;;;;;;17.11;60.14;98886.60;105620;1253;73894;-24
2023/09/13 06:00:34;;;;;;;6.70;3.20;;;;;;;17.24;59.67;98881.30;105594;1260;73469;-24
2023/09/13 06:03:02;;;;;;;6.10;2.40;;;;;;;17.31;59.25;98883.59;105464;1260;72706;-24
2023/09/13 06:05:30;;;;;;;3.80;2.60;;;;;;;17.44;59.14;98886.46;105258;1254;61166;-23
2023/09/13 06:07:58;;;;;;;4.40;2.80;;;;;;;17.58;58.84;98882.98;105301;1255;61064;-23
2023/09/13 06:10:26;;;;;;;8.20;2.80;;;;;;;17.68;58.53;98880.54;105575;1254;73891;-22
2023/09/13 06:12:54;;;;;;;4.60;2.60;;;;;;;17.79;58.38;98877.23;105450;1260;74351;-23
2023/09/13 06:15:22;;;;;;;5.00;2.60;;;;;;;17.90;58.19;98879.14;105536;1254;72714;-23
2023/09/13 06:17:54;;;;;;;7.30;2.80;;;;;;;18.03;57.86;98879.25;105440;1265;61105;-23
2023/09/13 06:20:23;;;;;;;8.30;3.10;;;;;;;18.09;57.06;98881.71;105584;1259;61192;-23
2023/09/13 06:22:51;;;;;;;5.40;2.60;;;;;;;18.16;57.24;98874.23;105694;1257;73912;-23
2023/09/13 06:25:19;;;;;;;4.90;2.60;;;;;;;18.26;57.40;98872.48;105654;1259;74433;-23
2023/09/13 06:27:47;;;;;;;9.00;2.80;;;;;;;18.44;57.09;98872.30;105514;1255;71460;-24
2023/09/13 06:30:15;;;;;;;5.00;2.40;;;;;;;18.57;56.66;98878.58;105458;1258;61083;-24
2023/09/13 06:32:43;;;;;;;5.10;2.40;;;;;;;18.68;56.16;98877.94;105448;1254;61090;-23
2023/09/13 06:35:12;;;;;;;10.40;3.90;;;;;;;18.75;56.21;98876.86;105502;1260;72708;-23
2023/09/13 06:37:43;;;;;;;7.40;2.80;;;;;;;18.84;56.29;98877.31;105245;1254;73183;-23
2023/09/13 06:40:11;;;;;;;8.00;2.40;;;;;;;19.00;56.14;98879.76;105401;1258;71737;-24
2023/09/13 06:42:40;;;;;;;7.60;2.80;;;;;;;19.16;55.80;98879.11;105546;1259;61145;-24
2023/09/13 06:45:26;;;;;;;6.40;2.60;;;;;;;19.32;55.40;98876.25;105511;1261;61162;-24
2023/09/13 06:47:56;;;;;;;4.80;2.60;;;;;;;19.44;54.93;98881.20;105667;1261;73839;-23
2023/09/13 06:50:25;;;;;;;6.20;2.80;;;;;;;19.53;54.93;98888.04;105714;1259;74400;-24
2023/09/13 07:00:47;;;;;;;6.20;2.20;;;;;;;20.02;54.85;98886.73;102626;1295;600209;-24
2023/09/13 07:03:35;;;;;;;5.80;2.90;;;;;;;20.19;53.78;98889.16;104853;1269;61315;-24
2023/09/13 07:06:07;;;;;;;5.40;2.60;;;;;;;20.36;53.27;98890.40;104840;1270;61123;-23
2023/09/13 07:08:35;;;;;;;7.30;2.70;;;;;;;20.50;52.52;98887.81;105625;1257;72318;-24
2023/09/13 07:11:03;;;;;;;6.80;2.60;;;;;;;20.50;52.67;98888.14;105476;1262;72915;-24
2023/09/13 07:13:31;;;;;;;3.50;2.20;;;;;;;20.75;52.36;98890.33;103549;1254;2920973;-25
2023/09/13 07:15:59;;;;;;;3.80;2.30;;;;;;;20.93;51.72;98889.14;105675;1259;61240;-23
2023/09/13 07:18:26;;;;;;;7.90;2.90;;;;;;;21.13;51.50;98889.79;105648;1255;61268;-24
2023/09/13 07:20:54;;;;;;;6.90;3.20;;;;;;;21.18;50.59;98891.08;105709;1254;72277;-23
2023/09/13 07:23:22;;;;;;;7.30;2.40;;;;;;;21.27;51.21;98897.26;105679;1254;74440;-24
2023/09/13 07:25:50;;;;;;;8.70;2.90;;;;;;;21.44;50.86;98896.24;105682;1259;73142;-23
2023/09/13 07:28:18;;;;;;;13.10;2.50;;;;;;;21.49;50.51;98895.94;105635;1257;61685;-24
2023/09/13 07:30:46;;;;;;;6.10;2.60;;;;;;;21.48;50.62;98894.62;105597;1254;61055;-22
2023/09/13 07:33:14;;;;;;;7.50;3.00;;;;;;;21.64;50.96;98893.25;105658;1254;73058;-22
2023/09/13 07:35:42;;;;;;;13.00;3.00;;;;;;;21.87;50.56;98890.31;105707;1254;73256;-22
2023/09/13 07:38:12;;;;;;;7.90;3.10;;;;;;;22.11;50.07;98886.48;105632;1258;72674;-22
2023/09/13 07:40:40;;;;;;;10.10;3.10;;;;;;;22.27;49.47;98885.33;105648;1254;61049;-22
2023/09/13 07:43:08;;;;;;;5.40;2.70;;;;;;;22.40;49.36;98885.58;105610;1257;61154;-22
2023/09/13 07:45:36;;;;;;;4.60;2.60;;;;;;;22.49;49.09;98887.88;105479;1259;73130;-22
2023/09/13 07:48:05;;;;;;;13.50;3.00;;;;;;;22.53;48.89;98887.92;105521;1254;73244;-22
2023/09/13 07:50:36;;;;;;;4.00;2.80;;;;;;;22.59;48.79;98883.06;105599;1259;71733;-22
2023/09/13 07:53:04;;;;;;;5.50;2.80;;;;;;;22.65;48.85;98883.91;105711;1259;61183;-22
2023/09/13 07:55:34;;;;;;;5.40;2.70;;;;;;;22.69;49.05;98889.66;105760;1252;61106;-22
2023/09/13 07:58:03;;;;;;;7.50;3.10;;;;;;;22.82;48.78;98891.02;105739;1261;71654;-22
2023/09/13 08:00:31;;;;;;;6.70;2.50;;;;;;;22.96;48.38;98895.13;105728;1254;73427;-22
2023/09/13 08:02:59;;;;;;;15.00;2.90;;;;;;;23.03;48.04;98898.94;105665;1256;73409;-22
2023/09/13 08:05:27;;;;;;;6.10;2.60;;;;;;;23.11;48.17;98896.33;105714;1262;61160;-22
2023/09/13 08:07:56;;;;;;;6.50;2.90;;;;;;;23.28;48.03;98895.70;105724;1257;61131;-23
2023/09/13 08:10:24;;;;;;;4.90;2.90;;;;;;;23.57;47.65;98891.10;105748;1254;75709;-23
2023/09/13 08:12:52;;;;;;;13.40;4.90;;;;;;;23.90;47.01;98891.77;105717;1254;74407;-23
2023/09/13 08:15:20;;;;;;;12.00;2.90;;;;;;;24.18;45.84;98892.04;105656;1254;72860;-23
2023/09/13 08:18:08;;;;;;;6.40;2.90;;;;;;;24.21;45.13;98890.00;105699;1259;61202;-23
2023/09/13 08:20:36;;;;;;;6.90;2.60;;;;;;;24.18;45.67;98891.61;105677;1258;61253;-23
2023/09/13 08:23:03;;;;;;;7.80;2.70;;;;;;;23.90;45.06;98887.77;105628;1254;73180;-23
2023/09/13 08:25:31;;;;;;;10.20;2.80;;;;;;;24.01;45.47;98893.30;105685;1254;74423;-23
2023/09/13 08:27:59;;;;;;;10.10;3.20;;;;;;;24.16;45.37;98888.23;105670;1256;73390;-23
2023/09/13 08:30:27;;;;;;;4.60;2.30;;;;;;;24.45;45.27;98892.52;105523;1259;61163;-23
2023/09/13 08:32:55;;;;;;;10.30;2.80;;;;;;;24.34;44.25;98892.20;105703;1259;61163;-23
2023/09/13 08:35:23;;;;;;;6.20;3.50;;;;;;;24.09;45.64;98887.23;105718;1254;75501;-22
2023/09/13 08:37:51;;;;;;;8.30;3.10;;;;;;;24.22;45.26;98884.19;105657;1259;74975;-22
2023/09/13 08:40:20;;;;;;;7.80;3.20;;;;;;;24.36;44.78;98886.30;105626;1259;71592;-23
2023/09/13 08:42:48;;;;;;;7.50;2.90;;;;;;;24.50;44.81;98886.52;105710;1254;61106;-24
2023/09/13 08:45:15;;;;;;;6.30;3.00;;;;;;;24.68;44.30;98884.22;105507;1259;61115;-24
2023/09/13 08:47:44;;;;;;;11.20;3.30;;;;;;;24.71;44.61;98881.33;105625;1254;72042;-24
2023/09/13 08:50:30;;;;;;;7.20;2.90;;;;;;;24.90;44.30;98877.73;105583;1254;74277;-24
2023/09/13 08:52:58;;;;;;;5.90;2.90;;;;;;;25.09;43.90;98876.23;105490;1259;71711;-24
2023/09/13 08:55:27;;;;;;;7.50;3.20;;;;;;;25.30;43.10;98872.77;105711;1257;61109;-24
2023/09/13 08:57:55;;;;;;;6.80;2.80;;;;;;;25.59;43.21;98872.90;105739;1254;61291;-25
2023/09/13 09:00:27;;;;;;;7.00;3.40;;;;;;;25.89;42.17;98869.28;105729;1259;71849;-23
2023/09/13 09:02:55;;;;;;;6.60;3.00;;;;;;;26.17;41.53;98861.56;105690;1254;77163;-23
2023/09/13 09:05:25;;;;;;;4.70;3.00;;;;;;;26.48;41.11;98863.03;105687;1254;72136;-23
2023/09/13 09:07:55;;;;;;;5.90;3.10;;;;;;;26.85;40.36;98862.75;105682;1260;62300;-23
2023/09/13 09:10:23;;;;;;;7.50;2.90;;;;;;;27.18;39.83;98867.44;105530;1262;61247;-23
2023/09/13 09:12:53;;;;;;;5.00;2.60;;;;;;;27.39;38.92;98866.96;105638;1258;73141;-23
2023/09/13 09:15:21;;;;;;;5.60;2.70;;;;;;;27.42;38.32;98863.83;105678;1254;74473;-23
2023/09/13 09:17:49;;;;;;;7.10;3.10;;;;;;;27.50;38.54;98860.16;105633;1254;72874;-23
2023/09/13 09:20:19;;;;;;;13.30;3.30;;;;;;;27.87;37.83;98861.26;105721;1254;61126;-23
2023/09/13 09:22:47;;;;;;;7.00;3.20;;;;;;;28.00;37.57;98860.55;105693;1259;62521;-23
2023/09/13 09:25:15;;;;;;;8.60;3.10;;;;;;;28.35;37.12;98861.88;105656;1254;72422;-23
2023/09/13 09:27:43;;;;;;;9.10;3.50;;;;;;;28.79;36.42;98855.69;105720;1259;75560;-23
2023/09/13 09:30:14;;;;;;;8.40;3.30;;;;;;;29.15;35.97;98855.89;105696;1259;73293;-23
2023/09/13 09:32:44;;;;;;;9.70;3.10;;;;;;;29.46;34.67;98856.45;105698;1260;61847;-23
2023/09/13 09:35:14;;;;;;;4.70;2.80;;;;;;;29.70;34.65;98848.78;105722;1254;61097;-23
2023/09/13 09:37:44;;;;;;;6.40;2.70;;;;;;;30.05;34.00;98847.02;105651;1259;72739;-24
2023/09/13 09:40:14;;;;;;;8.90;2.90;;;;;;;30.28;33.02;98846.49;105729;1259;72475;-24
2023/09/13 09:42:42;;;;;;;9.60;3.50;;;;;;;30.08;32.86;98844.67;105684;1254;73378;-23
2023/09/13 09:45:11;;;;;;;10.50;3.00;;;;;;;30.39;33.33;98846.02;105690;1268;61138;-24
2023/09/13 09:47:41;;;;;;;6.50;3.00;;;;;;;30.60;32.69;98840.96;105722;1254;61059;-23
2023/09/13 09:50:13;;;;;;;5.10;2.70;;;;;;;30.99;31.71;98843.85;105683;1254;74948;-24
2023/09/13 09:52:42;;;;;;;10.10;3.30;;;;;;;31.10;31.80;98843.13;105636;1254;65640;-24
2023/09/13 09:55:14;;;;;;;9.60;3.00;;;;;;;30.99;31.82;98843.05;105433;1259;63837;-23
2023/09/13 09:57:46;;;;;;;5.70;2.60;;;;;;;30.64;31.97;98842.88;105558;1262;61129;-22
2023/09/13 10:00:14;;;;;;;;;;;;;;;30.27;32.51;98840.38;105657;1254;61023;-22
2023/09/13 10:10:29;;;;;;;5.90;3.20;;;;;;;29.30;33.19;98848.51;102715;1290;599356;-23
2023/09/13 10:12:57;;;;;;;6.80;2.70;;;;;;;29.22;34.30;98844.98;104784;1274;61130;-22
2023/09/13 10:15:26;;;;;;;4.40;2.30;;;;;;;29.58;33.56;98841.02;104874;1272;61174;-24
2023/09/13 10:17:55;;;;;;;7.00;2.70;;;;;;;30.08;32.66;98839.30;104652;1274;71064;-24
2023/09/13 10:20:24;;;;;;;8.70;3.10;;;;;;;30.56;32.17;98839.92;104680;1266;65592;-24
2023/09/13 10:22:54;;;;;;;7.70;2.40;;;;;;;31.17;31.09;98839.98;102703;1266;3095829;-23
2023/09/13 10:25:24;;;;;;;6.20;2.90;;;;;;;31.66;30.06;98836.79;104931;1268;61194;-23
2023/09/13 10:27:54;;;;;;;5.60;2.30;;;;;;;32.00;29.07;98836.55;105069;1269;61205;-24
2023/09/13 10:30:25;;;;;;;7.70;2.60;;;;;;;32.10;28.99;98836.27;105077;1263;64044;-23
2023/09/13 10:32:57;;;;;;;12.50;2.90;;;;;;;32.17;29.16;98835.77;105029;1257;66437;-23
2023/09/13 10:35:28;;;;;;;6.90;2.90;;;;;;;32.46;28.99;98832.41;104950;1262;64488;-23
2023/09/13 10:38:06;;;;;;;5.50;2.30;;;;;;;32.66;28.39;98832.28;104950;1256;61251;-23
2023/09/13 10:40:41;;;;;;;6.00;2.30;;;;;;;32.84;28.12;98831.67;105051;1264;61072;-23
2023/09/13 10:43:09;;;;;;;6.40;2.60;;;;;;;32.91;27.68;98834.05;105282;1256;64172;-23
2023/09/13 10:45:41;;;;;;;11.10;2.90;;;;;;;32.91;27.79;98829.70;105289;1263;77160;-24
2023/09/13 10:48:09;;;;;;;6.00;2.70;;;;;;;32.52;28.09;98829.73;105508;1256;65368;-24
2023/09/13 10:50:37;;;;;;;6.90;2.90;;;;;;;32.52;28.17;98823.12;105249;1257;61868;-25
2023/09/13 10:53:05;;;;;;;6.20;3.00;;;;;;;32.99;27.62;98820.80;105222;1257;61153;-23
2023/09/13 10:55:33;;;;;;;8.00;2.60;;;;;;;32.83;27.41;98821.14;105358;1257;68101;-22
2023/09/13 10:58:03;;;;;;;11.40;2.90;;;;;;;32.77;27.80;98814.55;105266;1265;64391;-23
2023/09/13 11:00:32;;;;;;;9.40;2.80;;;;;;;32.84;27.65;98815.87;105098;1265;63837;-23
2023/09/13 11:03:00;;;;;;;6.10;3.00;;;;;;;33.24;27.78;98813.19;105294;1263;61110;-24
2023/09/13 11:05:28;;;;;;;5.60;2.80;;;;;;;32.84;27.27;98810.61;105660;1261;61175;-24
2023/09/13 11:07:56;;;;;;;5.90;2.60;;;;;;;32.53;28.05;98810.83;105198;1263;64993;-23
2023/09/13 11:10:25;;;;;;;11.40;3.00;;;;;;;32.32;27.84;98808.91;105141;1264;73723;-23
2023/09/13 11:12:53;;;;;;;6.50;2.60;;;;;;;32.46;28.10;98805.86;105307;1256;71739;-24
2023/09/13 11:15:22;;;;;;;8.40;2.70;;;;;;;31.99;28.48;98803.83;105178;1264;61203;-23
2023/09/13 11:17:53;;;;;;;5.10;3.10;;;;;;;32.16;28.65;98805.61;105475;1256;61097;-22
2023/09/13 11:20:28;;;;;;;4.50;3.00;;;;;;;32.48;28.51;98803.26;105218;1265;65577;-24
2023/09/13 11:23:10;;;;;;;7.80;3.00;;;;;;;32.80;27.93;98800.48;105397;1263;64474;-23
2023/09/13 11:26:05;;;;;;;8.30;3.10;;;;;;;33.01;27.69;98797.17;105191;1256;63225;-23
2023/09/13 11:28:38;;;;;;;6.60;3.10;;;;;;;32.99;27.73;98797.41;105326;1260;61153;-23
2023/09/13 11:31:08;;;;;;;8.10;3.30;;;;;;;32.61;28.04;98795.60;105514;1262;61214;-22
2023/09/13 11:33:46;;;;;;;4.20;2.80;;;;;;;32.45;28.63;98800.46;105118;1257;65044;-23
2023/09/13 11:36:17;;;;;;;6.50;3.10;;;;;;;32.53;28.25;98797.20;105337;1257;67824;-23
2023/09/13 11:38:49;;;;;;;6.30;3.00;;;;;;;32.63;27.90;98799.21;105191;1257;62526;-23
2023/09/13 11:41:17;;;;;;;10.70;3.80;;;;;;;32.76;28.08;98795.25;105588;1261;61163;-23
2023/09/13 11:43:46;;;;;;;5.80;3.30;;;;;;;32.91;27.85;98794.91;105680;1254;61161;-23
2023/09/13 11:46:30;;;;;;;5.50;3.10;;;;;;;33.00;27.57;98792.11;105669;1259;64203;-22
2023/09/13 11:48:58;;;;;;;6.10;2.90;;;;;;;33.08;27.54;98786.95;105734;1259;65560;-23